Eifukumaru No.21 — JD2341 — position and weather

sailwx.info

Track history (hours):
 
Tides and Currents Weather Stations Pressure Air Temp Water Temp Dewpoint Dewpoint Depression Visibility Wind Speed Wind Dir Waves Ship Positions

Eifukumaru No.21

Last reported at 2018-Jan-19 23:32 UTC. Time now 2018-Jan-22 00:15 UTC.
Position N 35°01' E 136°52'.

Length 75 m; draft 4.1 m.

Type: Cargo ship. MMSI: 431200707.

Date/timePositionNaut miles runAvg speedWind from/ knotsBaromVisibWave heightAir tempDewpointWater temp
2018-Jan-19 23:32N 35°01' E 136°52'0 1.6
2018-Jan-19 23:30N 35°01' E 136°52'5 9.5
2018-Jan-19 23:00N 34°58' E 136°48'713.1
2018-Jan-19 22:30N 34°51' E 136°47'713.2
2018-Jan-19 22:00N 34°45' E 136°49'713.7
2018-Jan-19 21:30N 34°39' E 136°54'1014.1
2018-Jan-19 20:50N 34°33' E 137°03'613.2
2018-Jan-19 20:23N 34°32' E 137°10'513.4
2018-Jan-19 20:00N 34°32' E 137°16'4612.8
2018-Jan-19 16:25N 34°33' E 138°12'612.8
2018-Jan-19 15:59N 34°34' E 138°18'713.1
2018-Jan-19 15:28N 34°34' E 138°27'813.6
2018-Jan-19 14:55N 34°34' E 138°36'813.6
2018-Jan-19 14:19N 34°35' E 138°46'613.0
2018-Jan-19 13:49N 34°35' E 138°54'311.2
2018-Jan-19 13:30N 34°36' E 138°57'712.9
2018-Jan-19 13:00N 34°41' E 139°03'713.1
2018-Jan-19 12:30N 34°47' E 139°07'713.0
2018-Jan-19 12:00N 34°52' E 139°11'1112.8
2018-Jan-19 11:07N 34°59' E 139°22'112.4
2018-Jan-19 11:00N 34°60' E 139°24'612.4
2018-Jan-19 10:30N 35°02' E 139°31'613.0
2018-Jan-19 10:00N 35°06' E 139°38'713.5
2018-Jan-19 09:30N 35°10' E 139°44'612.4
2018-Jan-19 09:00N 35°16' E 139°46'612.5
2018-Jan-19 08:31N 35°21' E 139°42'612.9
2018-Jan-19 08:01N 35°28' E 139°42'2 4.5
2018-Jan-19 07:31N 35°30' E 139°43'0 0.0
2018-Jan-18 23:40N 35°30' E 139°43'0 2.7
2018-Jan-18 23:30N 35°30' E 139°43'4 8.2
2018-Jan-18 23:00N 35°26' E 139°45'510.7
2018-Jan-18 22:30N 35°20' E 139°45'611.6
2018-Jan-18 22:00N 35°15' E 139°47'612.4
2018-Jan-18 21:30N 35°09' E 139°46'611.7
2018-Jan-18 21:00N 35°04' E 139°42'612.0
2018-Jan-18 20:30N 35°00' E 139°36'612.2
2018-Jan-18 20:00N 34°56' E 139°30'712.7
2018-Jan-18 19:28N 34°52' E 139°24'613.2
2018-Jan-18 19:00N 34°48' E 139°18'713.0
2018-Jan-18 18:27N 34°44' E 139°11'613.1
2018-Jan-18 18:00N 34°40' E 139°05'812.5
2018-Jan-18 17:24N 34°36' E 138°58'612.8
2018-Jan-18 16:57N 34°34' E 138°51'612.9
2018-Jan-18 16:30N 34°33' E 138°44'812.7
2018-Jan-18 15:52N 34°33' E 138°34'612.8
2018-Jan-18 15:26N 34°33' E 138°28'613.2
2018-Jan-18 14:59N 34°34' E 138°21'913.8
2018-Jan-18 14:21N 34°34' E 138°10'713.9
2018-Jan-18 13:52N 34°34' E 138°02'514.1
2018-Jan-18 13:29N 34°35' E 137°55'2713.9
2018-Jan-18 11:31N 34°34' E 137°22'114.1
2018-Jan-18 11:27N 34°33' E 137°21'613.6
2018-Jan-18 11:00N 34°33' E 137°14'1113.0
2018-Jan-18 10:09N 34°34' E 137°00'712.6
2018-Jan-18 09:38N 34°38' E 136°54'213.1
2018-Jan-18 09:30N 34°39' E 136°52'612.7
2018-Jan-18 09:00N 34°44' E 136°48'713.5
2018-Jan-18 08:30N 34°51' E 136°47'713.6
2018-Jan-18 08:01N 34°57' E 136°48'5 9.7
2018-Jan-18 07:31N 35°01' E 136°52'  
2018-Jan-12 14:46N 34°35' E 138°54'412.1
2018-Jan-12 14:24N 34°38' E 138°59'613.7
2018-Jan-12 13:59N 34°42' E 139°03'613.2
2018-Jan-12 13:30N 34°47' E 139°08'813.5
2018-Jan-12 12:57N 34°53' E 139°13'612.2
2018-Jan-12 12:28N 34°57' E 139°19'511.7
2018-Jan-12 12:00N 34°59' E 139°25'611.2
2018-Jan-12 11:28N 35°02' E 139°31'612.5
2018-Jan-12 11:00N 35°05' E 139°37'713.3
2018-Jan-12 10:30N 35°09' E 139°44'612.9
2018-Jan-12 10:00N 35°15' E 139°46'612.7
2018-Jan-12 09:30N 35°21' E 139°42'612.9
2018-Jan-12 09:00N 35°27' E 139°43'3 0.3
2018-Jan-11 23:56N 35°30' E 139°43'3 6.7
2018-Jan-11 23:30N 35°27' E 139°43'510.7
2018-Jan-11 23:00N 35°22' E 139°45'612.0
2018-Jan-11 22:30N 35°16' E 139°46'612.5
2018-Jan-11 22:00N 35°10' E 139°47'612.7
2018-Jan-11 21:30N 35°04' E 139°43'612.9
2018-Jan-11 21:00N 35°00' E 139°37'814.2
2018-Jan-11 20:28N 34°56' E 139°29'715.9
2018-Jan-11 20:00N 34°52' E 139°22'815.8
2018-Jan-11 19:30N 34°46' E 139°14'815.3
2018-Jan-11 19:00N 34°41' E 139°08'713.6
2018-Jan-11 18:30N 34°37' E 139°01'714.1
2018-Jan-11 18:00N 34°34' E 138°53'913.9
2018-Jan-11 17:24N 34°34' E 138°43'513.2
2018-Jan-11 17:00N 34°34' E 138°37'612.8
2018-Jan-11 16:30N 34°34' E 138°29'713.0
2018-Jan-11 15:56N 34°34' E 138°20'613.4
2018-Jan-11 15:28N 34°34' E 138°12'613.9
2018-Jan-11 15:00N 34°35' E 138°04'1013.7
2018-Jan-11 14:18N 34°35' E 137°53'2513.4
2018-Jan-11 12:23N 34°34' E 137°22'513.7
2018-Jan-11 12:00N 34°33' E 137°15'1013.7
2018-Jan-11 11:15N 34°32' E 137°03'312.9
2018-Jan-11 10:59N 34°34' E 136°59'713.4
2018-Jan-11 10:29N 34°38' E 136°53'613.0
2018-Jan-11 10:00N 34°43' E 136°49'713.6
2018-Jan-11 09:30N 34°50' E 136°47'713.3
2018-Jan-11 09:00N 34°57' E 136°47'510.9
2018-Jan-11 08:30N 35°01' E 136°52'0 0.1
2018-Jan-11 08:00N 35°01' E 136°52'0 0.0
2018-Jan-11 07:30N 35°01' E 136°52'0 0.0
2018-Jan-10 08:09N 35°01' E 136°52'1 6.2
2018-Jan-10 08:01N 35°01' E 136°51'713.3
2018-Jan-10 07:30N 34°55' E 136°47'713.1
2018-Jan-10 07:00N 34°48' E 136°48'612.5
2018-Jan-10 06:30N 34°43' E 136°51'6611.5
2018-Jan-10 00:43N 34°34' E 138°11'311.3
2018-Jan-10 00:25N 34°35' E 138°15'612.2
2018-Jan-09 23:57N 34°38' E 138°22'  
Track history (hours):
 
Tides and Currents Weather Stations Pressure Air Temp Water Temp Dewpoint Dewpoint Depression Visibility Wind Speed Wind Dir Waves Ship Positions

Eifukumaru No.21

Last reported at 2018-Jan-19 23:32 UTC. Time now 2018-Jan-22 00:15 UTC.
Position N 35°01' E 136°52'.

Length 75 m; draft 4.1 m.

Type: Cargo ship. MMSI: 431200707.

Date/timePositionNaut miles runAvg speedWind from/ knotsBaromVisibWave heightAir tempDewpointWater temp
2018-Jan-19 23:32N 35°01' E 136°52'0 1.6
2018-Jan-19 23:30N 35°01' E 136°52'5 9.5
2018-Jan-19 23:00N 34°58' E 136°48'713.1
2018-Jan-19 22:30N 34°51' E 136°47'713.2
2018-Jan-19 22:00N 34°45' E 136°49'713.7
2018-Jan-19 21:30N 34°39' E 136°54'1014.1
2018-Jan-19 20:50N 34°33' E 137°03'613.2
2018-Jan-19 20:23N 34°32' E 137°10'513.4
2018-Jan-19 20:00N 34°32' E 137°16'4612.8
2018-Jan-19 16:25N 34°33' E 138°12'612.8
2018-Jan-19 15:59N 34°34' E 138°18'713.1
2018-Jan-19 15:28N 34°34' E 138°27'813.6
2018-Jan-19 14:55N 34°34' E 138°36'813.6
2018-Jan-19 14:19N 34°35' E 138°46'613.0
2018-Jan-19 13:49N 34°35' E 138°54'311.2
2018-Jan-19 13:30N 34°36' E 138°57'712.9
2018-Jan-19 13:00N 34°41' E 139°03'713.1
2018-Jan-19 12:30N 34°47' E 139°07'713.0
2018-Jan-19 12:00N 34°52' E 139°11'1112.8
2018-Jan-19 11:07N 34°59' E 139°22'112.4
2018-Jan-19 11:00N 34°60' E 139°24'612.4
2018-Jan-19 10:30N 35°02' E 139°31'613.0
2018-Jan-19 10:00N 35°06' E 139°38'713.5
2018-Jan-19 09:30N 35°10' E 139°44'612.4
2018-Jan-19 09:00N 35°16' E 139°46'612.5
2018-Jan-19 08:31N 35°21' E 139°42'612.9
2018-Jan-19 08:01N 35°28' E 139°42'2 4.5
2018-Jan-19 07:31N 35°30' E 139°43'0 0.0
2018-Jan-18 23:40N 35°30' E 139°43'0 2.7
2018-Jan-18 23:30N 35°30' E 139°43'4 8.2
2018-Jan-18 23:00N 35°26' E 139°45'510.7
2018-Jan-18 22:30N 35°20' E 139°45'611.6
2018-Jan-18 22:00N 35°15' E 139°47'612.4
2018-Jan-18 21:30N 35°09' E 139°46'611.7
2018-Jan-18 21:00N 35°04' E 139°42'612.0
2018-Jan-18 20:30N 35°00' E 139°36'612.2
2018-Jan-18 20:00N 34°56' E 139°30'712.7
2018-Jan-18 19:28N 34°52' E 139°24'613.2
2018-Jan-18 19:00N 34°48' E 139°18'713.0
2018-Jan-18 18:27N 34°44' E 139°11'613.1
2018-Jan-18 18:00N 34°40' E 139°05'812.5
2018-Jan-18 17:24N 34°36' E 138°58'612.8
2018-Jan-18 16:57N 34°34' E 138°51'612.9
2018-Jan-18 16:30N 34°33' E 138°44'812.7
2018-Jan-18 15:52N 34°33' E 138°34'612.8
2018-Jan-18 15:26N 34°33' E 138°28'613.2
2018-Jan-18 14:59N 34°34' E 138°21'913.8
2018-Jan-18 14:21N 34°34' E 138°10'713.9
2018-Jan-18 13:52N 34°34' E 138°02'514.1
2018-Jan-18 13:29N 34°35' E 137°55'2713.9
2018-Jan-18 11:31N 34°34' E 137°22'114.1
2018-Jan-18 11:27N 34°33' E 137°21'613.6
2018-Jan-18 11:00N 34°33' E 137°14'1113.0
2018-Jan-18 10:09N 34°34' E 137°00'712.6
2018-Jan-18 09:38N 34°38' E 136°54'213.1
2018-Jan-18 09:30N 34°39' E 136°52'612.7
2018-Jan-18 09:00N 34°44' E 136°48'713.5
2018-Jan-18 08:30N 34°51' E 136°47'713.6
2018-Jan-18 08:01N 34°57' E 136°48'5 9.7
2018-Jan-18 07:31N 35°01' E 136°52'  
2018-Jan-12 14:46N 34°35' E 138°54'412.1
2018-Jan-12 14:24N 34°38' E 138°59'613.7
2018-Jan-12 13:59N 34°42' E 139°03'613.2
2018-Jan-12 13:30N 34°47' E 139°08'813.5
2018-Jan-12 12:57N 34°53' E 139°13'612.2
2018-Jan-12 12:28N 34°57' E 139°19'511.7
2018-Jan-12 12:00N 34°59' E 139°25'611.2
2018-Jan-12 11:28N 35°02' E 139°31'612.5
2018-Jan-12 11:00N 35°05' E 139°37'713.3
2018-Jan-12 10:30N 35°09' E 139°44'612.9
2018-Jan-12 10:00N 35°15' E 139°46'612.7
2018-Jan-12 09:30N 35°21' E 139°42'612.9
2018-Jan-12 09:00N 35°27' E 139°43'3 0.3
2018-Jan-11 23:56N 35°30' E 139°43'3 6.7
2018-Jan-11 23:30N 35°27' E 139°43'510.7
2018-Jan-11 23:00N 35°22' E 139°45'612.0
2018-Jan-11 22:30N 35°16' E 139°46'612.5
2018-Jan-11 22:00N 35°10' E 139°47'612.7
2018-Jan-11 21:30N 35°04' E 139°43'612.9
2018-Jan-11 21:00N 35°00' E 139°37'814.2
2018-Jan-11 20:28N 34°56' E 139°29'715.9
2018-Jan-11 20:00N 34°52' E 139°22'815.8
2018-Jan-11 19:30N 34°46' E 139°14'815.3
2018-Jan-11 19:00N 34°41' E 139°08'713.6
2018-Jan-11 18:30N 34°37' E 139°01'714.1
2018-Jan-11 18:00N 34°34' E 138°53'913.9
2018-Jan-11 17:24N 34°34' E 138°43'513.2
2018-Jan-11 17:00N 34°34' E 138°37'612.8
2018-Jan-11 16:30N 34°34' E 138°29'713.0
2018-Jan-11 15:56N 34°34' E 138°20'613.4
2018-Jan-11 15:28N 34°34' E 138°12'613.9
2018-Jan-11 15:00N 34°35' E 138°04'1013.7
2018-Jan-11 14:18N 34°35' E 137°53'2513.4
2018-Jan-11 12:23N 34°34' E 137°22'513.7
2018-Jan-11 12:00N 34°33' E 137°15'1013.7
2018-Jan-11 11:15N 34°32' E 137°03'312.9
2018-Jan-11 10:59N 34°34' E 136°59'713.4
2018-Jan-11 10:29N 34°38' E 136°53'613.0
2018-Jan-11 10:00N 34°43' E 136°49'713.6
2018-Jan-11 09:30N 34°50' E 136°47'713.3
2018-Jan-11 09:00N 34°57' E 136°47'510.9
2018-Jan-11 08:30N 35°01' E 136°52'0 0.1
2018-Jan-11 08:00N 35°01' E 136°52'0 0.0
2018-Jan-11 07:30N 35°01' E 136°52'0 0.0
2018-Jan-10 08:09N 35°01' E 136°52'1 6.2
2018-Jan-10 08:01N 35°01' E 136°51'713.3
2018-Jan-10 07:30N 34°55' E 136°47'713.1
2018-Jan-10 07:00N 34°48' E 136°48'612.5
2018-Jan-10 06:30N 34°43' E 136°51'6611.5
2018-Jan-10 00:43N 34°34' E 138°11'311.3
2018-Jan-10 00:25N 34°35' E 138°15'612.2
2018-Jan-09 23:57N 34°38' E 138°22'  

Dump ship's entire track history